createdAt,value
2018-12-20T00:00:09.744Z,20.49
2018-12-20T00:05:12.254Z,20.46
2018-12-20T00:10:14.768Z,20.47
2018-12-20T00:15:17.354Z,20.47
2018-12-20T00:20:19.924Z,20.49
2018-12-20T00:25:22.537Z,20.46
2018-12-20T00:30:25.262Z,20.43
2018-12-20T00:35:27.926Z,20.47
2018-12-20T00:40:31.022Z,20.44
2018-12-20T00:45:33.718Z,20.46
2018-12-20T00:50:36.446Z,20.47
2018-12-20T00:55:39.437Z,20.48
2018-12-20T01:00:41.944Z,20.43
2018-12-20T01:05:44.502Z,20.44
2018-12-20T01:10:47.000Z,20.38
2018-12-20T01:15:49.491Z,20.40
2018-12-20T01:20:52.105Z,20.43
2018-12-20T01:25:54.927Z,20.44
2018-12-20T01:30:57.594Z,20.40
2018-12-20T01:36:00.893Z,20.40
2018-12-20T01:41:03.496Z,20.41
2018-12-20T01:46:06.193Z,20.36
2018-12-20T01:51:08.877Z,20.42
2018-12-20T01:56:12.215Z,20.41
2018-12-20T02:01:14.929Z,20.44
2018-12-20T02:06:17.670Z,20.39
2018-12-20T02:11:20.548Z,20.42
2018-12-20T02:16:23.256Z,20.42
2018-12-20T02:21:25.965Z,20.44
2018-12-20T02:26:28.710Z,20.42
2018-12-20T02:31:31.575Z,20.41
2018-12-20T02:36:34.618Z,20.44
2018-12-20T02:41:38.125Z,20.44
2018-12-20T02:46:40.791Z,20.39
2018-12-20T02:51:43.454Z,20.45
2018-12-20T02:56:46.389Z,20.40
2018-12-20T03:01:49.262Z,20.38
2018-12-20T03:06:51.893Z,20.43
2018-12-20T03:11:54.377Z,20.42
2018-12-20T03:16:57.056Z,20.40
2018-12-20T03:21:59.964Z,20.38
2018-12-20T03:27:02.676Z,20.36
2018-12-20T03:32:05.365Z,20.33
2018-12-20T03:37:08.049Z,20.35
2018-12-20T03:42:10.794Z,20.37
2018-12-20T03:47:14.227Z,20.35
2018-12-20T03:52:17.053Z,20.42
2018-12-20T03:57:19.822Z,20.35
2018-12-20T04:02:24.451Z,20.37
2018-12-20T04:07:27.497Z,20.36
2018-12-20T04:12:30.320Z,20.36
2018-12-20T04:17:33.050Z,20.38
2018-12-20T04:22:35.730Z,20.38
2018-12-20T04:27:39.436Z,20.31
2018-12-20T04:32:42.073Z,20.36
2018-12-20T04:37:45.246Z,20.38
2018-12-20T04:42:47.941Z,20.37
2018-12-20T04:47:50.808Z,20.38
2018-12-20T04:52:53.596Z,20.39
2018-12-20T04:57:56.255Z,20.37
2018-12-20T05:02:58.931Z,20.38
2018-12-20T05:08:01.721Z,20.40
2018-12-20T05:13:04.485Z,20.36
2018-12-20T05:18:07.042Z,20.36
2018-12-20T05:23:09.912Z,20.32
2018-12-20T05:28:12.553Z,20.33
2018-12-20T05:33:15.524Z,20.35
2018-12-20T05:38:18.143Z,20.32
2018-12-20T05:43:20.920Z,20.34
2018-12-20T05:48:24.055Z,20.33
2018-12-20T05:53:26.814Z,20.31
2018-12-20T05:58:29.505Z,20.31
2018-12-20T06:03:32.012Z,20.29
2018-12-20T06:08:34.664Z,20.30
2018-12-20T06:13:37.460Z,20.34
2018-12-20T06:18:40.957Z,20.32
2018-12-20T06:23:43.613Z,20.34
2018-12-20T06:28:46.305Z,20.35
2018-12-20T06:33:48.948Z,20.33
2018-12-20T06:38:51.698Z,20.32
2018-12-20T06:43:54.163Z,20.34
2018-12-20T06:48:56.628Z,20.33
2018-12-20T06:53:59.092Z,20.31
2018-12-20T06:59:01.591Z,20.31
2018-12-20T07:04:04.076Z,20.31
2018-12-20T07:09:07.691Z,20.31
2018-12-20T07:14:10.147Z,20.30
2018-12-20T07:19:12.614Z,20.29
2018-12-20T07:24:15.976Z,20.31
2018-12-20T07:29:18.450Z,20.32
2018-12-20T07:34:20.945Z,20.32
2018-12-20T07:39:23.432Z,20.33
2018-12-20T07:44:25.900Z,20.30
2018-12-20T07:49:28.365Z,20.30
2018-12-20T07:54:30.837Z,20.32
2018-12-20T07:59:33.300Z,20.01
2018-12-20T08:04:35.784Z,18.87
2018-12-20T08:09:38.741Z,18.05
2018-12-20T08:14:41.241Z,18.04
2018-12-20T08:19:43.712Z,19.12
2018-12-20T08:24:46.184Z,19.60
2018-12-20T08:29:49.617Z,19.86
2018-12-20T08:34:52.085Z,20.03
2018-12-20T08:39:55.024Z,20.14
2018-12-20T08:44:57.488Z,20.23
2018-12-20T08:49:59.952Z,20.39
2018-12-20T08:55:02.577Z,20.45
2018-12-20T09:00:07.624Z,20.47
2018-12-20T09:05:10.126Z,20.49
2018-12-20T09:10:13.437Z,20.53
2018-12-20T09:15:15.960Z,20.53
2018-12-20T09:20:18.550Z,20.56
2018-12-20T09:25:21.667Z,20.57
2018-12-20T09:30:30.476Z,20.58
2018-12-20T09:35:28.702Z,20.60
2018-12-20T09:40:31.432Z,20.60
2018-12-20T09:45:33.936Z,20.63
2018-12-20T09:50:36.655Z,20.63
2018-12-20T09:55:39.120Z,20.65
2018-12-20T10:00:41.604Z,20.65
2018-12-20T10:05:44.119Z,20.67
2018-12-20T10:10:46.699Z,20.71
2018-12-20T10:15:49.196Z,20.70
2018-12-20T10:20:51.664Z,20.71
2018-12-20T10:25:54.165Z,20.75
2018-12-20T10:30:56.701Z,20.75
2018-12-20T10:35:59.204Z,20.71
2018-12-20T10:41:01.680Z,20.64
2018-12-20T10:46:04.212Z,20.78
2018-12-20T10:51:06.687Z,20.84
2018-12-20T10:56:09.206Z,20.86
2018-12-20T11:01:17.445Z,20.89
2018-12-20T11:06:25.465Z,20.91
2018-12-20T11:11:29.888Z,20.93
2018-12-20T11:16:41.120Z,20.95
2018-12-20T11:21:45.676Z,20.96
2018-12-20T11:26:48.102Z,20.94
2018-12-20T11:31:50.580Z,20.92
2018-12-20T11:36:53.053Z,20.92
2018-12-20T11:41:55.525Z,20.97
2018-12-20T11:46:58.009Z,20.98
2018-12-20T11:52:00.477Z,21.01
2018-12-20T11:57:02.941Z,21.00
2018-12-20T12:02:05.461Z,21.01
2018-12-20T12:07:08.082Z,21.00
2018-12-20T12:12:10.815Z,21.04
2018-12-20T12:17:13.550Z,21.05
2018-12-20T12:22:16.044Z,21.07
2018-12-20T12:27:18.701Z,21.12
2018-12-20T12:32:21.172Z,21.14
2018-12-20T12:37:23.708Z,21.19
2018-12-20T12:42:26.248Z,21.18
2018-12-20T12:47:34.456Z,21.22
2018-12-20T12:52:36.927Z,21.21
2018-12-20T12:57:39.457Z,21.23
2018-12-20T13:02:42.025Z,21.22
2018-12-20T13:07:44.520Z,21.27
2018-12-20T13:12:46.996Z,21.26
2018-12-20T13:17:49.712Z,21.27
2018-12-20T13:22:52.400Z,21.32
2018-12-20T13:27:54.892Z,21.30
2018-12-20T13:32:58.163Z,21.32
2018-12-20T13:38:00.636Z,21.32
2018-12-20T13:43:03.193Z,21.34
2018-12-20T13:48:05.737Z,21.35
2018-12-20T13:53:08.209Z,21.35
2018-12-20T13:58:10.716Z,21.34
2018-12-20T14:03:13.180Z,21.30
2018-12-20T14:08:15.754Z,21.39
2018-12-20T14:13:18.248Z,21.39
2018-12-20T14:18:20.712Z,21.44
2018-12-20T14:23:23.336Z,21.51
2018-12-20T14:28:25.885Z,21.46
2018-12-20T14:33:29.231Z,21.48
2018-12-20T14:38:32.144Z,21.53
2018-12-20T14:43:34.645Z,21.55
2018-12-20T14:48:39.461Z,21.56
2018-12-20T14:53:41.773Z,21.58
2018-12-20T14:58:44.288Z,21.61
2018-12-20T15:03:46.764Z,21.63
2018-12-20T15:08:49.612Z,21.66
2018-12-20T15:13:52.093Z,21.71
2018-12-20T15:18:54.592Z,21.67
2018-12-20T15:23:57.070Z,21.68
2018-12-20T15:28:59.553Z,21.72
2018-12-20T15:34:02.045Z,21.75
2018-12-20T15:39:06.952Z,21.77
2018-12-20T15:44:09.450Z,21.82
2018-12-20T15:49:11.932Z,21.76
2018-12-20T15:54:14.573Z,21.80
2018-12-20T15:59:17.112Z,21.81
2018-12-20T16:04:19.621Z,21.85
2018-12-20T16:09:22.165Z,21.81
2018-12-20T16:14:24.703Z,21.79
2018-12-20T16:19:27.212Z,21.87
2018-12-20T16:24:29.676Z,21.83
2018-12-20T16:29:32.172Z,21.90
2018-12-20T16:34:34.672Z,21.98
2018-12-20T16:39:37.140Z,21.91
2018-12-20T16:44:39.656Z,21.92
2018-12-20T16:49:42.741Z,22.01
2018-12-20T16:54:45.212Z,22.10
2018-12-20T16:59:47.853Z,22.09
2018-12-20T17:04:50.324Z,22.10
2018-12-20T17:09:52.797Z,22.16
2018-12-20T17:14:55.292Z,22.21
2018-12-20T17:19:57.756Z,22.20
2018-12-20T17:25:00.392Z,22.21
2018-12-20T17:30:02.911Z,22.18
2018-12-20T17:35:05.546Z,22.26
2018-12-20T17:40:08.181Z,22.10
2018-12-20T17:45:10.994Z,22.21
2018-12-20T17:50:13.492Z,22.21
2018-12-20T17:55:15.955Z,22.10
2018-12-20T18:00:18.609Z,22.19
2018-12-20T18:05:21.112Z,22.16
2018-12-20T18:10:23.608Z,22.24
2018-12-20T18:15:26.409Z,22.05
2018-12-20T18:20:28.869Z,22.17
2018-12-20T18:25:31.768Z,22.14
2018-12-20T18:30:34.881Z,22.05
2018-12-20T18:35:37.872Z,22.10
2018-12-20T18:40:40.889Z,22.03
2018-12-20T18:45:44.704Z,22.02
2018-12-20T18:50:47.169Z,22.06
2018-12-20T18:55:49.650Z,21.98
2018-12-20T19:00:52.140Z,21.97
2018-12-20T19:05:54.785Z,21.90
2018-12-20T19:10:57.256Z,21.93
2018-12-20T19:15:59.720Z,21.93
2018-12-20T19:21:02.188Z,21.87
2018-12-20T19:26:04.668Z,21.83
2018-12-20T19:31:07.147Z,21.86
2018-12-20T19:36:09.636Z,21.83
2018-12-20T19:41:13.043Z,21.76
2018-12-20T19:46:15.935Z,21.75
2018-12-20T19:51:19.059Z,21.77
2018-12-20T19:56:22.357Z,21.73
2018-12-20T20:01:25.566Z,21.74
2018-12-20T20:06:28.674Z,21.71
2018-12-20T20:11:31.667Z,21.65
2018-12-20T20:16:34.676Z,21.65
2018-12-20T20:21:37.689Z,21.72
2018-12-20T20:26:40.694Z,21.73
2018-12-20T20:31:43.193Z,21.69
2018-12-20T20:36:45.729Z,21.70
2018-12-20T20:41:48.196Z,21.69
2018-12-20T20:46:51.334Z,21.72
2018-12-20T20:51:54.894Z,21.72
2018-12-20T20:56:57.565Z,21.71
2018-12-20T21:02:00.064Z,21.72
2018-12-20T21:07:02.565Z,21.68
2018-12-20T21:12:05.056Z,21.69
2018-12-20T21:17:07.534Z,21.72
2018-12-20T21:22:10.127Z,21.73
2018-12-20T21:27:12.620Z,21.65
2018-12-20T21:32:15.122Z,21.70
2018-12-20T21:37:17.597Z,21.67
2018-12-20T21:42:20.132Z,21.72
2018-12-20T21:47:22.601Z,21.72
2018-12-20T21:52:25.068Z,21.81
2018-12-20T21:57:27.610Z,21.82
2018-12-20T22:02:30.149Z,21.80
2018-12-20T22:07:32.672Z,21.80
2018-12-20T22:12:35.155Z,21.78
2018-12-20T22:17:37.632Z,21.76
2018-12-20T22:22:40.229Z,21.72
2018-12-20T22:27:42.816Z,21.69
2018-12-20T22:32:46.570Z,21.74
2018-12-20T22:37:50.226Z,21.72
2018-12-20T22:42:52.696Z,21.77
2018-12-20T22:47:55.233Z,21.78
2018-12-20T22:52:57.981Z,21.76
2018-12-20T22:58:00.529Z,21.73
2018-12-20T23:03:03.165Z,21.70
2018-12-20T23:08:05.665Z,21.76
2018-12-20T23:13:08.161Z,21.81
2018-12-20T23:18:10.884Z,21.71
2018-12-20T23:23:14.113Z,21.69
2018-12-20T23:28:16.597Z,21.70
2018-12-20T23:33:19.063Z,21.76
2018-12-20T23:38:21.528Z,21.75
2018-12-20T23:43:24.024Z,21.75
2018-12-20T23:48:26.483Z,21.74
2018-12-20T23:53:29.869Z,21.71
2018-12-20T23:58:32.360Z,21.72
